Crown Point, Vermont
Current Conditions -  °F | °C
As of 3:35 AM on Friday 19 Dec 2014 (Local Time) from K6B0 Reporting Station
Overcast Overcast  
Wind Chill: -6°   Ceiling: 3200
Heat Index: -2°   Visibility: 10mi
Dew Point: -6°   Wind: 7mph
Humidity: 77%   Direction: 360°N
Pressure: 29.93"   Gusts: NA
Location:  44.0804°N, 73.3324°W
Report Text: K6B0 190835Z AUTO 36006KT 10SM OVC032 M02/M05 A2993 RMK AO2 T10201055
Loading
Personal Weather Stations






























Interactive Weather Map New forecast layout! Learn more

10-Day Weather Forecast

Advertisements
Track Severe Weather on mobile